<?xml version="1.0" encoding="UTF-8"?>
<gpx version="1.1" creator="2bulu-scraper" xmlns="http://www.topografix.com/GPX/1/1">
  <metadata><name>峨眉山打野vip</name><desc>source: 2bulu.com trackId=83704271; exported 2026-09-01T16:05:17.194Z</desc>
    <bounds minlat="29.5224584" minlon="103.3268286" maxlat="29.5636004" maxlon="103.4113276"/>
    <link href="https://www.2bulu.com/track/t-ITUZbaKuLYzp%252FR2KBg5Tzw%253D%253D.htm"><text>2bulu 源页面</text></link>
  </metadata>
  <wpt lat="29.5312444" lon="103.4085772"><ele>667</ele><name>
        </name></wpt>
  <wpt lat="29.5349998" lon="103.4070892"><ele>785</ele><name>
        </name></wpt>
  <wpt lat="29.5360688" lon="103.4073321"><ele>718</ele><name>
        </name></wpt>
  <wpt lat="29.5379915" lon="103.4063536"><ele>810</ele><name>
        </name></wpt>
  <wpt lat="29.53852" lon="103.4062185"><ele>856</ele><name>
        </name></wpt>
  <wpt lat="29.5387513" lon="103.4059682"><ele>851</ele><name>
        </name></wpt>
  <wpt lat="29.5387769" lon="103.4059488"><ele>851</ele><name>
        </name></wpt>
  <wpt lat="29.5396231" lon="103.4056625"><ele>851</ele><name>
        </name></wpt>
  <wpt lat="29.5396891" lon="103.4056168"><ele>889</ele><name>
        </name></wpt>
  <wpt lat="29.5397357" lon="103.4048436"><ele>930</ele><name>
        </name></wpt>
  <wpt lat="29.5406883" lon="103.4043955"><ele>996</ele><name>
        </name></wpt>
  <wpt lat="29.5406883" lon="103.4043955"><ele>1040</ele><name>
        </name></wpt>
  <wpt lat="29.542014" lon="103.404201"><ele>1064</ele><name>
        </name></wpt>
  <wpt lat="29.541835" lon="103.4040294"><ele>1059</ele><name>
        </name></wpt>
  <wpt lat="29.5417001" lon="103.4038718"><ele>1086</ele><name>
        </name></wpt>
  <wpt lat="29.5492919" lon="103.3967788"><ele>1226</ele><name>
        </name></wpt>
  <wpt lat="29.551326" lon="103.3956691"><ele>1123</ele><name>
        </name></wpt>
  <wpt lat="29.5513277" lon="103.3957181"><ele>1123</ele><name>
        </name></wpt>
  <wpt lat="29.5525604" lon="103.3948735"><ele>1143</ele><name>
        </name></wpt>
  <wpt lat="29.553139" lon="103.3944786"><ele>1107</ele><name>
        </name></wpt>
  <wpt lat="29.5581106" lon="103.39177"><ele>864</ele><name>
        </name></wpt>
  <wpt lat="29.5605473" lon="103.389452"><ele>870</ele><name>
        </name></wpt>
  <wpt lat="29.5602371" lon="103.3894214"><ele>754</ele><name>
        </name></wpt>
  <wpt lat="29.5601572" lon="103.3887757"><ele>771</ele><name>
        </name></wpt>
  <wpt lat="29.5568787" lon="103.3860762"><ele>829</ele><name>
        </name></wpt>
  <wpt lat="29.5557268" lon="103.3853778"><ele>896</ele><name>
        </name></wpt>
  <wpt lat="29.5550479" lon="103.383714"><ele>998</ele><name>
        </name></wpt>
  <wpt lat="29.5503046" lon="103.3643061"><ele>1481</ele><name>
        </name></wpt>
  <wpt lat="29.5499717" lon="103.3593162"><ele>1663</ele><name>
        </name></wpt>
  <wpt lat="29.5502631" lon="103.3569111"><ele>1738</ele><name>
        </name></wpt>
  <wpt lat="29.5498695" lon="103.3569946"><ele>1812</ele><name>
        </name></wpt>
  <wpt lat="29.5519401" lon="103.3540013"><ele>1712</ele><name>
        </name></wpt>
  <wpt lat="29.5521944" lon="103.3521925"><ele>1576</ele><name>
        </name></wpt>
  <wpt lat="29.553207" lon="103.3526396"><ele>1597</ele><name>
        </name></wpt>
  <wpt lat="29.5607856" lon="103.3515319"><ele>1672</ele><name>
        </name></wpt>
  <wpt lat="29.5585742" lon="103.3440338"><ele>2079</ele><name>
        </name></wpt>
  <wpt lat="29.549815" lon="103.342682"><ele>2229</ele><name>
        </name></wpt>
  <wpt lat="29.5494065" lon="103.3419849"><ele>2231</ele><name>
        </name></wpt>
  <wpt lat="29.5469075" lon="103.3395171"><ele>2362</ele><name>
        </name></wpt>
  <wpt lat="29.5468785" lon="103.3394448"><ele>2357</ele><name>
        </name></wpt>
  <wpt lat="29.5463617" lon="103.337865"><ele>2413</ele><name>
        </name></wpt>
  <wpt lat="29.5461521" lon="103.3347778"><ele>2439</ele><name>
        </name></wpt>
  <wpt lat="29.543322" lon="103.3331785"><ele>2427</ele><name>
        </name></wpt>
  <wpt lat="29.5379009" lon="103.3334943"><ele>2419</ele><name>
        </name></wpt>
  <wpt lat="29.5328164" lon="103.3321295"><ele>2614</ele><name>
        </name></wpt>
  <wpt lat="29.5296185" lon="103.3278098"><ele>2855</ele><name>
        </name></wpt>
  <wpt lat="29.5228771" lon="103.3364979"><ele>3065</ele><name>
        </name></wpt>
  <wpt lat="29.5228575" lon="103.3370397"><ele>3077</ele><name>
        </name></wpt>
  <wpt lat="29.522559" lon="103.3372309"><ele>3069</ele><name>
        </name></wpt>
  <wpt lat="29.5224578" lon="103.3370895"><ele>3068</ele><name>
        </name></wpt>
  <wpt lat="29.5225766" lon="103.3365636"><ele>3063</ele><name>
        </name></wpt>
  <trk><name>峨眉山打野vip</name>
      <trkseg>
        <trkpt lat="29.5311129" lon="103.4113276"><ele>702</ele><time>2026-05-03T16:56:18.000Z</time></trkpt>
        <trkpt lat="29.5317038" lon="103.4109452"><ele>695</ele><time>2026-05-03T16:57:47.000Z</time></trkpt>
        <trkpt lat="29.532515" lon="103.4110136"><ele>688</ele><time>2026-05-03T16:59:15.000Z</time></trkpt>
        <trkpt lat="29.5320002" lon="103.410256"><ele>691</ele><time>2026-05-03T17:00:59.000Z</time></trkpt>
        <trkpt lat="29.531617" lon="103.409009"><ele>695</ele><time>2026-05-03T17:03:01.000Z</time></trkpt>
        <trkpt lat="29.5312262" lon="103.4085225"><ele>700</ele><time>2026-05-03T17:04:08.000Z</time></trkpt>
        <trkpt lat="29.5312295" lon="103.4081019"><ele>700</ele><time>2026-05-03T17:04:44.000Z</time></trkpt>
        <trkpt lat="29.5318553" lon="103.4070159"><ele>706</ele><time>2026-05-03T17:06:28.000Z</time></trkpt>
        <trkpt lat="29.5333408" lon="103.4065658"><ele>713</ele><time>2026-05-03T17:11:08.000Z</time></trkpt>
        <trkpt lat="29.5341016" lon="103.4058583"><ele>724</ele><time>2026-05-03T17:12:40.000Z</time></trkpt>
        <trkpt lat="29.5345706" lon="103.4063573"><ele>730</ele><time>2026-05-03T17:13:34.000Z</time></trkpt>
        <trkpt lat="29.5347124" lon="103.4070047"><ele>734</ele><time>2026-05-03T17:14:46.000Z</time></trkpt>
        <trkpt lat="29.5350957" lon="103.407254"><ele>740</ele><time>2026-05-03T17:16:48.000Z</time></trkpt>
        <trkpt lat="29.5355427" lon="103.4074413"><ele>751</ele><time>2026-05-03T17:18:00.000Z</time></trkpt>
        <trkpt lat="29.5365078" lon="103.4072267"><ele>788</ele><time>2026-05-03T17:22:03.000Z</time></trkpt>
        <trkpt lat="29.5371611" lon="103.4068053"><ele>814</ele><time>2026-05-03T17:24:48.000Z</time></trkpt>
        <trkpt lat="29.537032" lon="103.4066722"><ele>820</ele><time>2026-05-03T17:25:44.000Z</time></trkpt>
        <trkpt lat="29.5370986" lon="103.4063613"><ele>825</ele><time>2026-05-03T17:26:22.000Z</time></trkpt>
        <trkpt lat="29.5376647" lon="103.4066013"><ele>838</ele><time>2026-05-03T17:29:18.000Z</time></trkpt>
        <trkpt lat="29.5378356" lon="103.4062764"><ele>844</ele><time>2026-05-03T17:30:29.000Z</time></trkpt>
        <trkpt lat="29.5380953" lon="103.4063575"><ele>851</ele><time>2026-05-03T17:31:46.000Z</time></trkpt>
        <trkpt lat="29.5381944" lon="103.4061525"><ele>859</ele><time>2026-05-03T17:32:16.000Z</time></trkpt>
        <trkpt lat="29.5385109" lon="103.4062241"><ele>861</ele><time>2026-05-03T17:32:52.000Z</time></trkpt>
        <trkpt lat="29.5387769" lon="103.4059488"><ele>876</ele><time>2026-05-03T17:34:46.000Z</time></trkpt>
        <trkpt lat="29.5396747" lon="103.4056369"><ele>900</ele><time>2026-05-03T17:37:38.000Z</time></trkpt>
        <trkpt lat="29.5392861" lon="103.4050854"><ele>930</ele><time>2026-05-03T17:40:08.000Z</time></trkpt>
        <trkpt lat="29.5395232" lon="103.4049359"><ele>938</ele><time>2026-05-03T17:40:49.000Z</time></trkpt>
        <trkpt lat="29.5397832" lon="103.405013"><ele>946</ele><time>2026-05-03T17:41:34.000Z</time></trkpt>
        <trkpt lat="29.5396365" lon="103.4044859"><ele>956</ele><time>2026-05-03T17:43:44.000Z</time></trkpt>
        <trkpt lat="29.5403033" lon="103.4039345"><ele>997</ele><time>2026-05-03T17:47:09.000Z</time></trkpt>
        <trkpt lat="29.5404354" lon="103.404035"><ele>1003</ele><time>2026-05-03T17:47:38.000Z</time></trkpt>
        <trkpt lat="29.5404655" lon="103.404725"><ele>1021</ele><time>2026-05-03T17:49:23.000Z</time></trkpt>
        <trkpt lat="29.5407873" lon="103.4045222"><ele>1038</ele><time>2026-05-03T17:50:53.000Z</time></trkpt>
        <trkpt lat="29.540676" lon="103.4043975"><ele>1047</ele><time>2026-05-03T17:51:32.000Z</time></trkpt>
        <trkpt lat="29.5412802" lon="103.4042442"><ele>1068</ele><time>2026-05-03T17:53:59.000Z</time></trkpt>
        <trkpt lat="29.5417101" lon="103.404355"><ele>1078</ele><time>2026-05-03T17:55:11.000Z</time></trkpt>
        <trkpt lat="29.5420175" lon="103.404206"><ele>1088</ele><time>2026-05-03T17:57:20.000Z</time></trkpt>
        <trkpt lat="29.541627" lon="103.4039547"><ele>1106</ele><time>2026-05-03T18:00:48.000Z</time></trkpt>
        <trkpt lat="29.541957" lon="103.4037035"><ele>1120</ele><time>2026-05-03T18:02:12.000Z</time></trkpt>
        <trkpt lat="29.5423775" lon="103.4038027"><ele>1140</ele><time>2026-05-03T18:03:50.000Z</time></trkpt>
        <trkpt lat="29.5427468" lon="103.4036215"><ele>1156</ele><time>2026-05-03T18:06:04.000Z</time></trkpt>
        <trkpt lat="29.5434379" lon="103.403596"><ele>1170</ele><time>2026-05-03T18:09:01.000Z</time></trkpt>
        <trkpt lat="29.5439781" lon="103.4029802"><ele>1210</ele><time>2026-05-03T18:12:38.000Z</time></trkpt>
        <trkpt lat="29.5440237" lon="103.4027286"><ele>1217</ele><time>2026-05-03T18:13:19.000Z</time></trkpt>
        <trkpt lat="29.5445706" lon="103.4025113"><ele>1220</ele><time>2026-05-03T18:14:33.000Z</time></trkpt>
        <trkpt lat="29.5448645" lon="103.4026408"><ele>1220</ele><time>2026-05-03T18:15:15.000Z</time></trkpt>
        <trkpt lat="29.5452767" lon="103.4022295"><ele>1235</ele><time>2026-05-03T18:17:14.000Z</time></trkpt>
        <trkpt lat="29.5456598" lon="103.4010971"><ele>1258</ele><time>2026-05-03T18:20:36.000Z</time></trkpt>
        <trkpt lat="29.5466188" lon="103.4007322"><ele>1276</ele><time>2026-05-03T18:23:36.000Z</time></trkpt>
        <trkpt lat="29.5469517" lon="103.400216"><ele>1282</ele><time>2026-05-03T18:25:00.000Z</time></trkpt>
        <trkpt lat="29.547244" lon="103.4003595"><ele>1284</ele><time>2026-05-03T18:25:43.000Z</time></trkpt>
        <trkpt lat="29.5477545" lon="103.3999681"><ele>1302</ele><time>2026-05-03T18:27:37.000Z</time></trkpt>
        <trkpt lat="29.5483953" lon="103.4000271"><ele>1309</ele><time>2026-05-03T18:29:10.000Z</time></trkpt>
        <trkpt lat="29.5483094" lon="103.3998386"><ele>1315</ele><time>2026-05-03T18:29:42.000Z</time></trkpt>
        <trkpt lat="29.5486397" lon="103.3996464"><ele>1326</ele><time>2026-05-03T18:30:52.000Z</time></trkpt>
        <trkpt lat="29.5481333" lon="103.3990098"><ele>1338</ele><time>2026-05-03T18:33:03.000Z</time></trkpt>
        <trkpt lat="29.5484953" lon="103.3983709"><ele>1358</ele><time>2026-05-03T18:35:02.000Z</time></trkpt>
        <trkpt lat="29.5481191" lon="103.397557"><ele>1375</ele><time>2026-05-03T18:37:06.000Z</time></trkpt>
        <trkpt lat="29.5481969" lon="103.3970383"><ele>1362</ele><time>2026-05-03T18:38:25.000Z</time></trkpt>
        <trkpt lat="29.5491386" lon="103.396935"><ele>1282</ele><time>2026-05-03T18:42:19.000Z</time></trkpt>
        <trkpt lat="29.5497981" lon="103.3960465"><ele>1241</ele><time>2026-05-03T18:46:38.000Z</time></trkpt>
        <trkpt lat="29.5506606" lon="103.3956917"><ele>1228</ele><time>2026-05-03T18:48:29.000Z</time></trkpt>
        <trkpt lat="29.5508875" lon="103.3957586"><ele>1231</ele><time>2026-05-03T18:51:09.000Z</time></trkpt>
        <trkpt lat="29.5510039" lon="103.3954707"><ele>1231</ele><time>2026-05-03T18:52:10.000Z</time></trkpt>
        <trkpt lat="29.551255" lon="103.3954225"><ele>1219</ele><time>2026-05-03T18:54:16.000Z</time></trkpt>
        <trkpt lat="29.5513812" lon="103.395766"><ele>1202</ele><time>2026-05-03T18:55:52.000Z</time></trkpt>
        <trkpt lat="29.5517416" lon="103.3956787"><ele>1197</ele><time>2026-05-03T18:57:47.000Z</time></trkpt>
        <trkpt lat="29.5519777" lon="103.3952096"><ele>1166</ele><time>2026-05-03T19:01:00.000Z</time></trkpt>
        <trkpt lat="29.5533427" lon="103.3942985"><ele>1105</ele><time>2026-05-03T19:11:50.000Z</time></trkpt>
        <trkpt lat="29.5536909" lon="103.3943591"><ele>1090</ele><time>2026-05-03T19:13:51.000Z</time></trkpt>
        <trkpt lat="29.5541007" lon="103.394018"><ele>1087</ele><time>2026-05-03T19:15:12.000Z</time></trkpt>
        <trkpt lat="29.5542836" lon="103.3941405"><ele>1079</ele><time>2026-05-03T19:15:47.000Z</time></trkpt>
        <trkpt lat="29.5545512" lon="103.3940032"><ele>1070</ele><time>2026-05-03T19:17:02.000Z</time></trkpt>
        <trkpt lat="29.5548396" lon="103.3936868"><ele>1067</ele><time>2026-05-03T19:17:48.000Z</time></trkpt>
        <trkpt lat="29.5554543" lon="103.393612"><ele>1036</ele><time>2026-05-03T19:19:46.000Z</time></trkpt>
        <trkpt lat="29.5557959" lon="103.3930263"><ele>1019</ele><time>2026-05-03T19:21:58.000Z</time></trkpt>
        <trkpt lat="29.5564656" lon="103.393005"><ele>993</ele><time>2026-05-03T19:24:00.000Z</time></trkpt>
        <trkpt lat="29.5566457" lon="103.3927448"><ele>967</ele><time>2026-05-03T19:25:45.000Z</time></trkpt>
        <trkpt lat="29.5580956" lon="103.3918197"><ele>895</ele><time>2026-05-03T19:43:39.000Z</time></trkpt>
        <trkpt lat="29.558397" lon="103.3913013"><ele>879</ele><time>2026-05-03T19:47:51.000Z</time></trkpt>
        <trkpt lat="29.560107" lon="103.3904862"><ele>835</ele><time>2026-05-03T19:54:53.000Z</time></trkpt>
        <trkpt lat="29.5604684" lon="103.3900233"><ele>804</ele><time>2026-05-03T19:57:12.000Z</time></trkpt>
        <trkpt lat="29.5605595" lon="103.3895502"><ele>779</ele><time>2026-05-03T20:00:18.000Z</time></trkpt>
        <trkpt lat="29.560156" lon="103.3893225"><ele>779</ele><time>2026-05-03T20:04:59.000Z</time></trkpt>
        <trkpt lat="29.5601572" lon="103.3887757"><ele>788</ele><time>2026-05-03T20:07:43.000Z</time></trkpt>
        <trkpt lat="29.5597103" lon="103.3884504"><ele>791</ele><time>2026-05-03T20:09:16.000Z</time></trkpt>
        <trkpt lat="29.5595232" lon="103.3879351"><ele>789</ele><time>2026-05-03T20:09:44.000Z</time></trkpt>
        <trkpt lat="29.559203" lon="103.3876809"><ele>786</ele><time>2026-05-03T20:10:32.000Z</time></trkpt>
        <trkpt lat="29.5586321" lon="103.3877359"><ele>789</ele><time>2026-05-03T20:11:14.000Z</time></trkpt>
        <trkpt lat="29.5581768" lon="103.3871721"><ele>800</ele><time>2026-05-03T20:13:00.000Z</time></trkpt>
        <trkpt lat="29.5577392" lon="103.3869967"><ele>806</ele><time>2026-05-03T20:13:48.000Z</time></trkpt>
        <trkpt lat="29.5574997" lon="103.3864977"><ele>812</ele><time>2026-05-03T20:14:54.000Z</time></trkpt>
        <trkpt lat="29.5570692" lon="103.3864457"><ele>819</ele><time>2026-05-03T20:16:05.000Z</time></trkpt>
        <trkpt lat="29.5568399" lon="103.3860375"><ele>828</ele><time>2026-05-03T20:17:25.000Z</time></trkpt>
        <trkpt lat="29.5565727" lon="103.386174"><ele>835</ele><time>2026-05-03T20:23:49.000Z</time></trkpt>
        <trkpt lat="29.5564323" lon="103.385918"><ele>848</ele><time>2026-05-03T20:25:05.000Z</time></trkpt>
        <trkpt lat="29.5562208" lon="103.3860883"><ele>857</ele><time>2026-05-03T20:26:05.000Z</time></trkpt>
        <trkpt lat="29.5560231" lon="103.3860093"><ele>867</ele><time>2026-05-03T20:26:55.000Z</time></trkpt>
        <trkpt lat="29.556112" lon="103.3854252"><ele>892</ele><time>2026-05-03T20:29:20.000Z</time></trkpt>
        <trkpt lat="29.5557967" lon="103.3855472"><ele>910</ele><time>2026-05-03T20:30:32.000Z</time></trkpt>
        <trkpt lat="29.555693" lon="103.3850859"><ele>931</ele><time>2026-05-03T20:32:36.000Z</time></trkpt>
        <trkpt lat="29.5550728" lon="103.3849674"><ele>956</ele><time>2026-05-03T20:34:56.000Z</time></trkpt>
        <trkpt lat="29.5546944" lon="103.38467"><ele>966</ele><time>2026-05-03T20:36:06.000Z</time></trkpt>
        <trkpt lat="29.5546364" lon="103.3845405"><ele>972</ele><time>2026-05-03T20:36:46.000Z</time></trkpt>
        <trkpt lat="29.5550649" lon="103.3842274"><ele>997</ele><time>2026-05-03T20:38:59.000Z</time></trkpt>
        <trkpt lat="29.5549567" lon="103.383913"><ele>1000</ele><time>2026-05-03T20:40:54.000Z</time></trkpt>
        <trkpt lat="29.5550578" lon="103.3836742"><ele>998</ele><time>2026-05-03T20:41:31.000Z</time></trkpt>
        <trkpt lat="29.554496" lon="103.3831699"><ele>1000</ele><time>2026-05-03T20:43:05.000Z</time></trkpt>
        <trkpt lat="29.5541991" lon="103.3823206"><ele>1029</ele><time>2026-05-03T20:45:26.000Z</time></trkpt>
        <trkpt lat="29.5539552" lon="103.3810079"><ele>1041</ele><time>2026-05-03T20:47:45.000Z</time></trkpt>
        <trkpt lat="29.5540358" lon="103.3801986"><ele>1051</ele><time>2026-05-03T20:49:11.000Z</time></trkpt>
        <trkpt lat="29.5537912" lon="103.3792247"><ele>1073</ele><time>2026-05-03T20:51:23.000Z</time></trkpt>
        <trkpt lat="29.5537963" lon="103.3784834"><ele>1087</ele><time>2026-05-03T20:53:03.000Z</time></trkpt>
        <trkpt lat="29.5529625" lon="103.3773243"><ele>1139</ele><time>2026-05-03T20:57:13.000Z</time></trkpt>
        <trkpt lat="29.5518041" lon="103.3766373"><ele>1190</ele><time>2026-05-03T21:01:30.000Z</time></trkpt>
        <trkpt lat="29.5514827" lon="103.3754248"><ele>1229</ele><time>2026-05-03T21:04:57.000Z</time></trkpt>
        <trkpt lat="29.5499509" lon="103.3747165"><ele>1250</ele><time>2026-05-03T21:08:02.000Z</time></trkpt>
        <trkpt lat="29.5501784" lon="103.3743224"><ele>1265</ele><time>2026-05-03T21:09:16.000Z</time></trkpt>
        <trkpt lat="29.5510942" lon="103.3739809"><ele>1262</ele><time>2026-05-03T21:11:19.000Z</time></trkpt>
        <trkpt lat="29.5513653" lon="103.3733376"><ele>1260</ele><time>2026-05-03T21:11:51.000Z</time></trkpt>
        <trkpt lat="29.5511199" lon="103.3729352"><ele>1262</ele><time>2026-05-03T21:12:29.000Z</time></trkpt>
        <trkpt lat="29.5502379" lon="103.3730129"><ele>1265</ele><time>2026-05-03T21:13:48.000Z</time></trkpt>
        <trkpt lat="29.5507046" lon="103.3721166"><ele>1257</ele><time>2026-05-03T21:15:59.000Z</time></trkpt>
        <trkpt lat="29.5503224" lon="103.371409"><ele>1248</ele><time>2026-05-03T21:17:47.000Z</time></trkpt>
        <trkpt lat="29.5504866" lon="103.3710196"><ele>1248</ele><time>2026-05-03T21:18:29.000Z</time></trkpt>
        <trkpt lat="29.5503311" lon="103.3706273"><ele>1236</ele><time>2026-05-03T21:19:25.000Z</time></trkpt>
        <trkpt lat="29.5504785" lon="103.3698938"><ele>1243</ele><time>2026-05-03T21:21:00.000Z</time></trkpt>
        <trkpt lat="29.550255" lon="103.3695048"><ele>1260</ele><time>2026-05-03T21:22:12.000Z</time></trkpt>
        <trkpt lat="29.5500204" lon="103.3694538"><ele>1271</ele><time>2026-05-03T21:22:43.000Z</time></trkpt>
        <trkpt lat="29.5499401" lon="103.3688194"><ele>1286</ele><time>2026-05-03T21:24:43.000Z</time></trkpt>
        <trkpt lat="29.5497981" lon="103.3688692"><ele>1292</ele><time>2026-05-03T21:25:14.000Z</time></trkpt>
        <trkpt lat="29.549643" lon="103.3686242"><ele>1292</ele><time>2026-05-03T21:25:50.000Z</time></trkpt>
        <trkpt lat="29.5499103" lon="103.3682374"><ele>1338</ele><time>2026-05-03T21:29:06.000Z</time></trkpt>
        <trkpt lat="29.5498898" lon="103.3678179"><ele>1374</ele><time>2026-05-03T21:31:32.000Z</time></trkpt>
        <trkpt lat="29.5501954" lon="103.3675208"><ele>1397</ele><time>2026-05-03T21:33:33.000Z</time></trkpt>
        <trkpt lat="29.5502645" lon="103.3672407"><ele>1407</ele><time>2026-05-03T21:34:27.000Z</time></trkpt>
        <trkpt lat="29.5501109" lon="103.367255"><ele>1419</ele><time>2026-05-03T21:35:32.000Z</time></trkpt>
        <trkpt lat="29.5503597" lon="103.3668621"><ele>1428</ele><time>2026-05-03T21:36:37.000Z</time></trkpt>
        <trkpt lat="29.549945" lon="103.3665282"><ele>1453</ele><time>2026-05-03T21:38:21.000Z</time></trkpt>
        <trkpt lat="29.5497378" lon="103.3665963"><ele>1463</ele><time>2026-05-03T21:39:01.000Z</time></trkpt>
        <trkpt lat="29.5495046" lon="103.366457"><ele>1482</ele><time>2026-05-03T21:40:20.000Z</time></trkpt>
        <trkpt lat="29.5494642" lon="103.366288"><ele>1495</ele><time>2026-05-03T21:42:15.000Z</time></trkpt>
        <trkpt lat="29.5496767" lon="103.3660458"><ele>1493</ele><time>2026-05-03T21:42:54.000Z</time></trkpt>
        <trkpt lat="29.5495094" lon="103.3655593"><ele>1504</ele><time>2026-05-03T21:44:07.000Z</time></trkpt>
        <trkpt lat="29.5500797" lon="103.3647894"><ele>1505</ele><time>2026-05-03T21:45:19.000Z</time></trkpt>
        <trkpt lat="29.5504658" lon="103.3638311"><ele>1521</ele><time>2026-05-03T21:48:24.000Z</time></trkpt>
        <trkpt lat="29.5507979" lon="103.3636658"><ele>1525</ele><time>2026-05-03T21:49:06.000Z</time></trkpt>
        <trkpt lat="29.5507155" lon="103.363282"><ele>1532</ele><time>2026-05-03T21:49:53.000Z</time></trkpt>
        <trkpt lat="29.5508206" lon="103.3632981"><ele>1536</ele><time>2026-05-03T21:50:17.000Z</time></trkpt>
        <trkpt lat="29.5507487" lon="103.3630443"><ele>1549</ele><time>2026-05-03T21:51:07.000Z</time></trkpt>
        <trkpt lat="29.5508609" lon="103.3630636"><ele>1553</ele><time>2026-05-03T21:51:25.000Z</time></trkpt>
        <trkpt lat="29.5505997" lon="103.3628734"><ele>1570</ele><time>2026-05-03T21:52:45.000Z</time></trkpt>
        <trkpt lat="29.5506926" lon="103.3624222"><ele>1591</ele><time>2026-05-03T21:54:03.000Z</time></trkpt>
        <trkpt lat="29.5504472" lon="103.3615555"><ele>1634</ele><time>2026-05-03T21:59:04.000Z</time></trkpt>
        <trkpt lat="29.549976" lon="103.361228"><ele>1650</ele><time>2026-05-03T22:00:35.000Z</time></trkpt>
        <trkpt lat="29.5498499" lon="103.3608495"><ele>1656</ele><time>2026-05-03T22:01:07.000Z</time></trkpt>
        <trkpt lat="29.5501637" lon="103.3601202"><ele>1652</ele><time>2026-05-03T22:02:19.000Z</time></trkpt>
        <trkpt lat="29.5498833" lon="103.3593769"><ele>1683</ele><time>2026-05-03T22:04:51.000Z</time></trkpt>
        <trkpt lat="29.5502957" lon="103.3590644"><ele>1692</ele><time>2026-05-03T22:05:53.000Z</time></trkpt>
        <trkpt lat="29.5504275" lon="103.3577471"><ele>1721</ele><time>2026-05-03T22:09:11.000Z</time></trkpt>
        <trkpt lat="29.5503813" lon="103.3569945"><ele>1736</ele><time>2026-05-03T22:10:40.000Z</time></trkpt>
        <trkpt lat="29.5500841" lon="103.3569561"><ele>1739</ele><time>2026-05-03T22:12:26.000Z</time></trkpt>
        <trkpt lat="29.5500814" lon="103.3568401"><ele>1740</ele><time>2026-05-03T22:13:23.000Z</time></trkpt>
        <trkpt lat="29.5499118" lon="103.3569443"><ele>1747</ele><time>2026-05-03T22:23:06.000Z</time></trkpt>
        <trkpt lat="29.550253" lon="103.3559005"><ele>1731</ele><time>2026-05-03T22:25:51.000Z</time></trkpt>
        <trkpt lat="29.5512859" lon="103.3554274"><ele>1705</ele><time>2026-05-03T22:28:08.000Z</time></trkpt>
        <trkpt lat="29.5517842" lon="103.3544102"><ele>1684</ele><time>2026-05-03T22:30:04.000Z</time></trkpt>
        <trkpt lat="29.5519443" lon="103.3540242"><ele>1677</ele><time>2026-05-03T22:30:50.000Z</time></trkpt>
        <trkpt lat="29.5516666" lon="103.3535103"><ele>1675</ele><time>2026-05-03T22:32:27.000Z</time></trkpt>
        <trkpt lat="29.5519468" lon="103.3527148"><ele>1656</ele><time>2026-05-03T22:33:52.000Z</time></trkpt>
        <trkpt lat="29.5522398" lon="103.352731"><ele>1643</ele><time>2026-05-03T22:34:16.000Z</time></trkpt>
        <trkpt lat="29.5521871" lon="103.3521888"><ele>1620</ele><time>2026-05-03T22:35:57.000Z</time></trkpt>
        <trkpt lat="29.5526412" lon="103.352293"><ele>1634</ele><time>2026-05-03T22:37:30.000Z</time></trkpt>
        <trkpt lat="29.5531058" lon="103.3526419"><ele>1639</ele><time>2026-05-03T22:38:28.000Z</time></trkpt>
        <trkpt lat="29.5537868" lon="103.3524873"><ele>1633</ele><time>2026-05-03T22:39:48.000Z</time></trkpt>
        <trkpt lat="29.5544331" lon="103.3527324"><ele>1638</ele><time>2026-05-03T22:41:10.000Z</time></trkpt>
        <trkpt lat="29.5548988" lon="103.3537455"><ele>1656</ele><time>2026-05-03T22:43:25.000Z</time></trkpt>
        <trkpt lat="29.5554615" lon="103.3534338"><ele>1638</ele><time>2026-05-03T22:44:41.000Z</time></trkpt>
        <trkpt lat="29.5561752" lon="103.353513"><ele>1633</ele><time>2026-05-03T22:45:45.000Z</time></trkpt>
        <trkpt lat="29.5573435" lon="103.352213"><ele>1609</ele><time>2026-05-03T22:48:33.000Z</time></trkpt>
        <trkpt lat="29.5576542" lon="103.3513933"><ele>1585</ele><time>2026-05-03T22:50:00.000Z</time></trkpt>
        <trkpt lat="29.5584468" lon="103.351318"><ele>1588</ele><time>2026-05-03T22:51:34.000Z</time></trkpt>
        <trkpt lat="29.5597646" lon="103.3503552"><ele>1576</ele><time>2026-05-03T22:54:41.000Z</time></trkpt>
        <trkpt lat="29.5600045" lon="103.3503319"><ele>1588</ele><time>2026-05-03T22:55:32.000Z</time></trkpt>
        <trkpt lat="29.5602081" lon="103.3505432"><ele>1602</ele><time>2026-05-03T22:56:32.000Z</time></trkpt>
        <trkpt lat="29.5602964" lon="103.3510881"><ele>1628</ele><time>2026-05-03T22:58:30.000Z</time></trkpt>
        <trkpt lat="29.5605606" lon="103.3511017"><ele>1649</ele><time>2026-05-03T23:00:01.000Z</time></trkpt>
        <trkpt lat="29.5607561" lon="103.3513543"><ele>1678</ele><time>2026-05-03T23:02:19.000Z</time></trkpt>
        <trkpt lat="29.5606201" lon="103.3516631"><ele>1696</ele><time>2026-05-03T23:03:52.000Z</time></trkpt>
        <trkpt lat="29.5609098" lon="103.3515241"><ele>1708</ele><time>2026-05-03T23:05:56.000Z</time></trkpt>
        <trkpt lat="29.5615205" lon="103.351689"><ele>1720</ele><time>2026-05-03T23:08:21.000Z</time></trkpt>
        <trkpt lat="29.5615528" lon="103.3519804"><ele>1742</ele><time>2026-05-03T23:10:08.000Z</time></trkpt>
        <trkpt lat="29.561952" lon="103.3521734"><ele>1770</ele><time>2026-05-03T23:13:05.000Z</time></trkpt>
        <trkpt lat="29.5627809" lon="103.35222"><ele>1808</ele><time>2026-05-03T23:16:35.000Z</time></trkpt>
        <trkpt lat="29.5628414" lon="103.3520994"><ele>1808</ele><time>2026-05-03T23:16:45.000Z</time></trkpt>
        <trkpt lat="29.5625823" lon="103.3517455"><ele>1805</ele><time>2026-05-03T23:17:21.000Z</time></trkpt>
        <trkpt lat="29.5628985" lon="103.3511087"><ele>1825</ele><time>2026-05-03T23:19:14.000Z</time></trkpt>
        <trkpt lat="29.5629047" lon="103.3498519"><ele>1831</ele><time>2026-05-03T23:21:11.000Z</time></trkpt>
        <trkpt lat="29.5632595" lon="103.3491457"><ele>1832</ele><time>2026-05-03T23:22:03.000Z</time></trkpt>
        <trkpt lat="29.5633254" lon="103.3483158"><ele>1837</ele><time>2026-05-03T23:23:05.000Z</time></trkpt>
        <trkpt lat="29.5636004" lon="103.3478769"><ele>1838</ele><time>2026-05-03T23:23:45.000Z</time></trkpt>
        <trkpt lat="29.5634532" lon="103.3472045"><ele>1831</ele><time>2026-05-03T23:24:37.000Z</time></trkpt>
        <trkpt lat="29.5628748" lon="103.3465094"><ele>1824</ele><time>2026-05-03T23:26:40.000Z</time></trkpt>
        <trkpt lat="29.5625199" lon="103.34636"><ele>1822</ele><time>2026-05-03T23:27:10.000Z</time></trkpt>
        <trkpt lat="29.5620508" lon="103.3456683"><ele>1819</ele><time>2026-05-03T23:28:16.000Z</time></trkpt>
        <trkpt lat="29.5616455" lon="103.34558"><ele>1823</ele><time>2026-05-03T23:29:03.000Z</time></trkpt>
        <trkpt lat="29.5612201" lon="103.345073"><ele>1840</ele><time>2026-05-03T23:30:53.000Z</time></trkpt>
        <trkpt lat="29.5609471" lon="103.3450578"><ele>1862</ele><time>2026-05-03T23:32:40.000Z</time></trkpt>
        <trkpt lat="29.5607862" lon="103.3447506"><ele>1885</ele><time>2026-05-03T23:34:30.000Z</time></trkpt>
        <trkpt lat="29.5603148" lon="103.3444902"><ele>1915</ele><time>2026-05-03T23:37:12.000Z</time></trkpt>
        <trkpt lat="29.560281" lon="103.3442158"><ele>1927</ele><time>2026-05-03T23:38:09.000Z</time></trkpt>
        <trkpt lat="29.560121" lon="103.3441995"><ele>1934</ele><time>2026-05-03T23:38:49.000Z</time></trkpt>
        <trkpt lat="29.5601992" lon="103.3439249"><ele>1952</ele><time>2026-05-03T23:40:21.000Z</time></trkpt>
        <trkpt lat="29.55976" lon="103.3435262"><ele>1980</ele><time>2026-05-03T23:42:57.000Z</time></trkpt>
        <trkpt lat="29.5593761" lon="103.3436261"><ele>2013</ele><time>2026-05-03T23:45:23.000Z</time></trkpt>
        <trkpt lat="29.5592548" lon="103.3438317"><ele>2023</ele><time>2026-05-03T23:46:08.000Z</time></trkpt>
        <trkpt lat="29.5590602" lon="103.3436747"><ele>2041</ele><time>2026-05-03T23:47:33.000Z</time></trkpt>
        <trkpt lat="29.5589144" lon="103.3443436"><ele>2064</ele><time>2026-05-03T23:49:55.000Z</time></trkpt>
        <trkpt lat="29.5585107" lon="103.3441547"><ele>2078</ele><time>2026-05-03T23:51:45.000Z</time></trkpt>
        <trkpt lat="29.5585549" lon="103.3440016"><ele>2079</ele><time>2026-05-03T23:52:11.000Z</time></trkpt>
        <trkpt lat="29.5581855" lon="103.3441342"><ele>2086</ele><time>2026-05-03T23:54:40.000Z</time></trkpt>
        <trkpt lat="29.5581229" lon="103.3439736"><ele>2086</ele><time>2026-05-03T23:55:11.000Z</time></trkpt>
        <trkpt lat="29.5576993" lon="103.3439778"><ele>2085</ele><time>2026-05-03T23:55:31.000Z</time></trkpt>
        <trkpt lat="29.5572091" lon="103.3436325"><ele>2094</ele><time>2026-05-03T23:57:21.000Z</time></trkpt>
        <trkpt lat="29.5566866" lon="103.3437887"><ele>2112</ele><time>2026-05-03T23:59:12.000Z</time></trkpt>
        <trkpt lat="29.5558898" lon="103.3449894"><ele>2168</ele><time>2026-05-04T00:03:33.000Z</time></trkpt>
        <trkpt lat="29.5556368" lon="103.3449171"><ele>2181</ele><time>2026-05-04T00:04:27.000Z</time></trkpt>
        <trkpt lat="29.5554729" lon="103.3451451"><ele>2194</ele><time>2026-05-04T00:05:30.000Z</time></trkpt>
        <trkpt lat="29.5552944" lon="103.3450094"><ele>2202</ele><time>2026-05-04T00:06:08.000Z</time></trkpt>
        <trkpt lat="29.5540777" lon="103.3455086"><ele>2254</ele><time>2026-05-04T00:10:26.000Z</time></trkpt>
        <trkpt lat="29.5536858" lon="103.3453264"><ele>2267</ele><time>2026-05-04T00:11:44.000Z</time></trkpt>
        <trkpt lat="29.5524938" lon="103.3454542"><ele>2280</ele><time>2026-05-04T00:13:46.000Z</time></trkpt>
        <trkpt lat="29.5524589" lon="103.345243"><ele>2280</ele><time>2026-05-04T00:14:06.000Z</time></trkpt>
        <trkpt lat="29.5520551" lon="103.3450484"><ele>2280</ele><time>2026-05-04T00:14:36.000Z</time></trkpt>
        <trkpt lat="29.5516251" lon="103.3443263"><ele>2276</ele><time>2026-05-04T00:15:34.000Z</time></trkpt>
        <trkpt lat="29.5508494" lon="103.3441174"><ele>2269</ele><time>2026-05-04T00:16:30.000Z</time></trkpt>
        <trkpt lat="29.5505563" lon="103.3438567"><ele>2272</ele><time>2026-05-04T00:17:06.000Z</time></trkpt>
        <trkpt lat="29.5494445" lon="103.3422063"><ele>2282</ele><time>2026-05-04T00:19:33.000Z</time></trkpt>
        <trkpt lat="29.5490977" lon="103.3412069"><ele>2291</ele><time>2026-05-04T00:21:25.000Z</time></trkpt>
        <trkpt lat="29.5479699" lon="103.3412159"><ele>2327</ele><time>2026-05-04T00:24:24.000Z</time></trkpt>
        <trkpt lat="29.5474113" lon="103.3409937"><ele>2341</ele><time>2026-05-04T00:25:45.000Z</time></trkpt>
        <trkpt lat="29.5470843" lon="103.3397261"><ele>2382</ele><time>2026-05-04T00:29:29.000Z</time></trkpt>
        <trkpt lat="29.5462033" lon="103.3383353"><ele>2447</ele><time>2026-05-04T00:35:23.000Z</time></trkpt>
        <trkpt lat="29.5466362" lon="103.3372371"><ele>2465</ele><time>2026-05-04T00:37:45.000Z</time></trkpt>
        <trkpt lat="29.5464834" lon="103.3366253"><ele>2461</ele><time>2026-05-04T00:38:43.000Z</time></trkpt>
        <trkpt lat="29.5467695" lon="103.3350185"><ele>2433</ele><time>2026-05-04T00:40:47.000Z</time></trkpt>
        <trkpt lat="29.545993" lon="103.3347465"><ele>2439</ele><time>2026-05-04T00:44:19.000Z</time></trkpt>
        <trkpt lat="29.5452395" lon="103.3341192"><ele>2435</ele><time>2026-05-04T00:45:49.000Z</time></trkpt>
        <trkpt lat="29.5449472" lon="103.3340789"><ele>2434</ele><time>2026-05-04T00:46:09.000Z</time></trkpt>
        <trkpt lat="29.5446776" lon="103.3342506"><ele>2432</ele><time>2026-05-04T00:46:23.000Z</time></trkpt>
        <trkpt lat="29.5437118" lon="103.3339271"><ele>2433</ele><time>2026-05-04T00:47:27.000Z</time></trkpt>
        <trkpt lat="29.5432724" lon="103.333094"><ele>2428</ele><time>2026-05-04T00:48:32.000Z</time></trkpt>
        <trkpt lat="29.5429148" lon="103.3329377"><ele>2428</ele><time>2026-05-04T00:49:25.000Z</time></trkpt>
        <trkpt lat="29.5424569" lon="103.3322332"><ele>2428</ele><time>2026-05-04T00:50:29.000Z</time></trkpt>
        <trkpt lat="29.5418265" lon="103.3317027"><ele>2425</ele><time>2026-05-04T00:51:42.000Z</time></trkpt>
        <trkpt lat="29.5407259" lon="103.331759"><ele>2434</ele><time>2026-05-04T00:54:33.000Z</time></trkpt>
        <trkpt lat="29.5387515" lon="103.3331927"><ele>2456</ele><time>2026-05-04T00:58:55.000Z</time></trkpt>
        <trkpt lat="29.537362" lon="103.3337659"><ele>2468</ele><time>2026-05-04T01:02:11.000Z</time></trkpt>
        <trkpt lat="29.5372421" lon="103.3341176"><ele>2478</ele><time>2026-05-04T01:02:51.000Z</time></trkpt>
        <trkpt lat="29.5366861" lon="103.3343661"><ele>2490</ele><time>2026-05-04T01:03:59.000Z</time></trkpt>
        <trkpt lat="29.5362412" lon="103.3342971"><ele>2492</ele><time>2026-05-04T01:05:25.000Z</time></trkpt>
        <trkpt lat="29.5357097" lon="103.333974"><ele>2506</ele><time>2026-05-04T01:06:46.000Z</time></trkpt>
        <trkpt lat="29.5350475" lon="103.3328184"><ele>2534</ele><time>2026-05-04T01:09:42.000Z</time></trkpt>
        <trkpt lat="29.5343592" lon="103.3331558"><ele>2552</ele><time>2026-05-04T01:11:24.000Z</time></trkpt>
        <trkpt lat="29.5339374" lon="103.3331909"><ele>2566</ele><time>2026-05-04T01:12:34.000Z</time></trkpt>
        <trkpt lat="29.532656" lon="103.331977"><ele>2625</ele><time>2026-05-04T01:17:38.000Z</time></trkpt>
        <trkpt lat="29.5323596" lon="103.3311951"><ele>2652</ele><time>2026-05-04T01:20:13.000Z</time></trkpt>
        <trkpt lat="29.532228" lon="103.3313844"><ele>2661</ele><time>2026-05-04T01:20:58.000Z</time></trkpt>
        <trkpt lat="29.5322012" lon="103.3302504"><ele>2691</ele><time>2026-05-04T01:24:05.000Z</time></trkpt>
        <trkpt lat="29.5318635" lon="103.3302025"><ele>2711</ele><time>2026-05-04T01:25:48.000Z</time></trkpt>
        <trkpt lat="29.5311945" lon="103.3295232"><ele>2763</ele><time>2026-05-04T01:29:39.000Z</time></trkpt>
        <trkpt lat="29.5312709" lon="103.3272768"><ele>2807</ele><time>2026-05-04T01:34:20.000Z</time></trkpt>
        <trkpt lat="29.5308583" lon="103.3268549"><ele>2824</ele><time>2026-05-04T01:36:04.000Z</time></trkpt>
        <trkpt lat="29.5301775" lon="103.327132"><ele>2846</ele><time>2026-05-04T01:38:02.000Z</time></trkpt>
        <trkpt lat="29.5297439" lon="103.3277705"><ele>2854</ele><time>2026-05-04T01:39:10.000Z</time></trkpt>
        <trkpt lat="29.529348" lon="103.3278217"><ele>2857</ele><time>2026-05-04T01:39:53.000Z</time></trkpt>
        <trkpt lat="29.5275389" lon="103.3324723"><ele>2945</ele><time>2026-05-04T01:50:34.000Z</time></trkpt>
        <trkpt lat="29.527143" lon="103.3323039"><ele>2951</ele><time>2026-05-04T01:51:39.000Z</time></trkpt>
        <trkpt lat="29.5270862" lon="103.3334053"><ele>2965</ele><time>2026-05-04T01:53:50.000Z</time></trkpt>
        <trkpt lat="29.5258743" lon="103.3340127"><ele>2998</ele><time>2026-05-04T01:57:04.000Z</time></trkpt>
        <trkpt lat="29.5251321" lon="103.3348558"><ele>3019</ele><time>2026-05-04T01:59:39.000Z</time></trkpt>
        <trkpt lat="29.5248645" lon="103.3347589"><ele>3020</ele><time>2026-05-04T02:00:10.000Z</time></trkpt>
        <trkpt lat="29.5239455" lon="103.3349552"><ele>3030</ele><time>2026-05-04T02:01:45.000Z</time></trkpt>
        <trkpt lat="29.522888" lon="103.3347519"><ele>3039</ele><time>2026-05-04T02:04:22.000Z</time></trkpt>
        <trkpt lat="29.5227658" lon="103.3349148"><ele>3046</ele><time>2026-05-04T02:04:56.000Z</time></trkpt>
        <trkpt lat="29.5228805" lon="103.3357944"><ele>3061</ele><time>2026-05-04T02:11:48.000Z</time></trkpt>
        <trkpt lat="29.5226627" lon="103.335941"><ele>3065</ele><time>2026-05-04T02:12:16.000Z</time></trkpt>
        <trkpt lat="29.5226591" lon="103.3361342"><ele>3066</ele><time>2026-05-04T02:12:57.000Z</time></trkpt>
        <trkpt lat="29.5228051" lon="103.3364769"><ele>3065</ele><time>2026-05-04T02:13:45.000Z</time></trkpt>
        <trkpt lat="29.5231433" lon="103.3365805"><ele>3064</ele><time>2026-05-04T02:14:34.000Z</time></trkpt>
        <trkpt lat="29.5231737" lon="103.3371509"><ele>3071</ele><time>2026-05-04T02:15:34.000Z</time></trkpt>
        <trkpt lat="29.5228527" lon="103.3370288"><ele>3076</ele><time>2026-05-04T02:16:39.000Z</time></trkpt>
        <trkpt lat="29.5230957" lon="103.3368965"><ele>3076</ele><time>2026-05-04T02:17:07.000Z</time></trkpt>
        <trkpt lat="29.5226487" lon="103.3373034"><ele>3071</ele><time>2026-05-04T02:19:43.000Z</time></trkpt>
        <trkpt lat="29.5224584" lon="103.3371128"><ele>3068</ele><time>2026-05-04T02:20:25.000Z</time></trkpt>
        <trkpt lat="29.5226684" lon="103.3359577"><ele>3064</ele><time>2026-05-04T02:22:23.000Z</time></trkpt>
        <trkpt lat="29.5228471" lon="103.3357991"><ele>3061</ele><time>2026-05-04T02:22:37.000Z</time></trkpt>
        <trkpt lat="29.5228109" lon="103.33479"><ele>3045</ele><time>2026-05-04T02:23:39.000Z</time></trkpt>
        <trkpt lat="29.5242491" lon="103.3349448"><ele>3029</ele><time>2026-05-04T02:25:11.000Z</time></trkpt>
        <trkpt lat="29.5247527" lon="103.3347278"><ele>3027</ele><time>2026-05-04T02:25:37.000Z</time></trkpt>
        <trkpt lat="29.5250991" lon="103.3348013"><ele>3022</ele><time>2026-05-04T02:25:55.000Z</time></trkpt>
        <trkpt lat="29.5259129" lon="103.3339723"><ele>3001</ele><time>2026-05-04T02:26:45.000Z</time></trkpt>
        <trkpt lat="29.5271577" lon="103.3333106"><ele>2970</ele><time>2026-05-04T02:27:53.000Z</time></trkpt>
        <trkpt lat="29.5271132" lon="103.3323682"><ele>2958</ele><time>2026-05-04T02:28:33.000Z</time></trkpt>
        <trkpt lat="29.5272147" lon="103.3322771"><ele>2953</ele><time>2026-05-04T02:28:41.000Z</time></trkpt>
        <trkpt lat="29.5273398" lon="103.3324847"><ele>2952</ele><time>2026-05-04T02:28:51.000Z</time></trkpt>
        <trkpt lat="29.5275234" lon="103.3324838"><ele>2949</ele><time>2026-05-04T02:29:01.000Z</time></trkpt>
        <trkpt lat="29.5278043" lon="103.3315379"><ele>2930</ele><time>2026-05-04T02:29:47.000Z</time></trkpt>
        <trkpt lat="29.5286364" lon="103.3298854"><ele>2898</ele><time>2026-05-04T02:31:23.000Z</time></trkpt>
        <trkpt lat="29.5293284" lon="103.3277879"><ele>2855</ele><time>2026-05-04T02:32:55.000Z</time></trkpt>
        <trkpt lat="29.5297325" lon="103.3277578"><ele>2851</ele><time>2026-05-04T02:33:13.000Z</time></trkpt>
        <trkpt lat="29.5300407" lon="103.3272496"><ele>2849</ele><time>2026-05-04T02:33:35.000Z</time></trkpt>
        <trkpt lat="29.5307793" lon="103.3268286"><ele>2827</ele><time>2026-05-04T02:34:19.000Z</time></trkpt>
        <trkpt lat="29.5312661" lon="103.3273199"><ele>2803</ele><time>2026-05-04T02:34:59.000Z</time></trkpt>
        <trkpt lat="29.5311863" lon="103.329519"><ele>2755</ele><time>2026-05-04T02:36:53.000Z</time></trkpt>
        <trkpt lat="29.5319335" lon="103.3302367"><ele>2704</ele><time>2026-05-04T02:38:21.000Z</time></trkpt>
        <trkpt lat="29.5322081" lon="103.3302552"><ele>2687</ele><time>2026-05-04T02:38:51.000Z</time></trkpt>
        <trkpt lat="29.5322343" lon="103.3314061"><ele>2656</ele><time>2026-05-04T02:40:03.000Z</time></trkpt>
        <trkpt lat="29.5323751" lon="103.3312062"><ele>2647</ele><time>2026-05-04T02:40:21.000Z</time></trkpt>
        <trkpt lat="29.5326779" lon="103.3319776"><ele>2619</ele><time>2026-05-04T02:41:09.000Z</time></trkpt>
        <trkpt lat="29.5339584" lon="103.3332164"><ele>2557</ele><time>2026-05-04T02:43:07.000Z</time></trkpt>
        <trkpt lat="29.5350305" lon="103.3328222"><ele>2521</ele><time>2026-05-04T02:44:29.000Z</time></trkpt>
        <trkpt lat="29.5354" lon="103.3336544"><ele>2502</ele><time>2026-05-04T02:45:11.000Z</time></trkpt>
        <trkpt lat="29.5357444" lon="103.3340338"><ele>2495</ele><time>2026-05-04T02:45:29.000Z</time></trkpt>
        <trkpt lat="29.5363397" lon="103.3343596"><ele>2482</ele><time>2026-05-04T02:45:59.000Z</time></trkpt>
        <trkpt lat="29.5366943" lon="103.3343378"><ele>2477</ele><time>2026-05-04T02:46:15.000Z</time></trkpt>
        <trkpt lat="29.5371955" lon="103.3341376"><ele>2466</ele><time>2026-05-04T02:46:43.000Z</time></trkpt>
        <trkpt lat="29.537411" lon="103.3337747"><ele>2457</ele><time>2026-05-04T02:47:03.000Z</time></trkpt>
        <trkpt lat="29.5378311" lon="103.3335115"><ele>2452</ele><time>2026-05-04T02:47:21.000Z</time></trkpt>
        <trkpt lat="29.5390154" lon="103.3330375"><ele>2443</ele><time>2026-05-04T02:48:05.000Z</time></trkpt>
        <trkpt lat="29.5398332" lon="103.3323078"><ele>2424</ele><time>2026-05-04T02:48:53.000Z</time></trkpt>
        <trkpt lat="29.5403412" lon="103.3320957"><ele>2423</ele><time>2026-05-04T02:50:01.000Z</time></trkpt>
      </trkseg>
  </trk>
</gpx>